Time;durP1;ratioP1;P1;durP2;ratioP2;P2;SDS_P1;SDS_P2;PMS_P1;PMS_P2;Temp;Humidity;BMP_temperature;BMP_pressure;BME280_temperature;BME280_humidity;BME280_pressure;Samples;Min_cycle;Max_cycle;Signal;HPM_P1;HPM_P2
2022/09/20 00:01:12;;;;;;;15.73;2.35;;;;;;;8.86;83.39;96614.03;5013218;28;20404;-76
2022/09/20 00:03:41;;;;;;;9.70;1.88;;;;;;;8.75;83.15;96615.31;5012564;28;20054;-76
2022/09/20 00:06:11;;;;;;;17.30;2.40;;;;;;;8.86;83.04;96614.03;5012891;28;20057;-76
2022/09/20 00:08:39;;;;;;;17.17;2.47;;;;;;;9.02;82.72;96619.97;5012317;28;20049;-75
2022/09/20 00:11:08;;;;;;;15.60;2.45;;;;;;;9.04;82.38;96613.16;5012178;28;20054;-76
2022/09/20 00:13:36;;;;;;;8.18;1.67;;;;;;;8.95;83.48;96612.22;5012011;28;20146;-74
2022/09/20 00:16:05;;;;;;;12.50;1.92;;;;;;;8.93;81.98;96616.34;5012132;28;20421;-74
2022/09/20 00:18:32;;;;;;;14.77;2.08;;;;;;;9.03;82.60;96616.97;5011600;28;20042;-75
2022/09/20 00:20:58;;;;;;;13.70;2.35;;;;;;;9.12;81.71;96617.84;5009791;28;20054;-74
2022/09/20 00:23:26;;;;;;;17.65;2.50;;;;;;;9.14;81.65;96607.50;5011225;28;20054;-74
2022/09/20 00:25:57;;;;;;;15.07;2.10;;;;;;;9.05;81.09;96620.19;5011576;28;20057;-74
2022/09/20 00:28:24;;;;;;;15.50;2.35;;;;;;;9.04;81.02;96613.16;5011374;28;20068;-74
2022/09/20 00:30:51;;;;;;;11.93;2.05;;;;;;;9.20;80.98;96618.28;5011561;28;20049;-74
2022/09/20 00:33:18;;;;;;;13.73;2.05;;;;;;;9.28;79.85;96617.56;5011421;28;20084;-75
2022/09/20 00:35:44;;;;;;;19.15;2.40;;;;;;;9.27;79.43;96621.38;5009545;28;20049;-74
2022/09/20 00:38:12;;;;;;;15.82;2.80;;;;;;;9.25;79.65;96618.19;5010812;28;20511;-75
2022/09/20 00:40:40;;;;;;;16.92;2.47;;;;;;;9.24;79.67;96624.69;5010403;28;20563;-76
2022/09/20 00:43:07;;;;;;;16.13;2.33;;;;;;;9.25;79.80;96618.19;5011571;28;20050;-75
2022/09/20 00:45:34;;;;;;;15.13;2.35;;;;;;;9.14;80.43;96618.38;5010920;28;20402;-75
2022/09/20 00:48:05;;;;;;;14.88;2.22;;;;;;;9.25;79.96;96612.75;5011122;28;20050;-74
2022/09/20 00:50:36;;;;;;;10.75;1.70;;;;;;;9.25;80.38;96620.91;5011395;28;20441;-75
2022/09/20 00:53:07;;;;;;;14.73;2.33;;;;;;;9.35;80.62;96617.97;5010858;28;20473;-74
2022/09/20 00:55:36;;;;;;;21.45;3.05;;;;;;;9.34;80.11;96616.34;5010430;28;21554;-74
2022/09/20 00:58:05;;;;;;;21.88;3.25;;;;;;;9.30;80.04;96612.66;5010493;28;20046;-74
2022/09/20 01:00:32;;;;;;;10.18;1.80;;;;;;;9.27;79.92;96615.94;5011754;28;20080;-74
2022/09/20 01:03:03;;;;;;;12.82;1.90;;;;;;;9.23;80.59;96612.22;5011120;28;20169;-75
2022/09/20 01:05:30;;;;;;;9.40;1.60;;;;;;;9.05;81.03;96609.31;5011142;28;20045;-75
2022/09/20 01:07:57;;;;;;;16.13;2.38;;;;;;;9.21;80.78;96611.72;5010702;28;20049;-74
2022/09/20 01:10:24;;;;;;;19.38;2.65;;;;;;;9.18;81.20;96615.84;5011103;28;20046;-75
2022/09/20 01:12:53;;;;;;;16.75;2.35;;;;;;;9.27;80.86;96615.94;5011101;28;20049;-75
2022/09/20 01:15:22;;;;;;;14.30;2.33;;;;;;;9.24;81.06;96609.22;5011915;28;20048;-75
2022/09/20 01:17:52;;;;;;;15.30;2.65;;;;;;;8.83;82.10;96618.16;5014678;28;20049;-74
2022/09/20 01:20:23;;;;;;;15.40;2.20;;;;;;;9.06;82.13;96613.63;5014082;28;20654;-75
2022/09/20 01:23:17;;;;;;;16.95;2.30;;;;;;;9.06;82.43;96610.94;5015027;28;20053;-75
2022/09/20 01:26:12;;;;;;;12.20;1.80;;;;;;;9.05;82.18;96620.19;5014592;28;20053;-75
2022/09/20 01:28:42;;;;;;;12.55;1.90;;;;;;;8.95;82.88;96606.81;5014059;28;20041;-76
2022/09/20 01:31:14;;;;;;;17.30;2.35;;;;;;;8.98;82.50;96603.50;5014418;28;20107;-74
2022/09/20 01:33:47;;;;;;;7.73;1.33;;;;;;;8.78;83.29;96603.88;5014350;28;20046;-74
2022/09/20 01:36:22;;;;;;;14.70;2.25;;;;;;;8.93;83.06;96605.47;5014827;28;20053;-74
2022/09/20 01:38:58;;;;;;;9.48;1.60;;;;;;;9.03;83.19;96606.13;5012485;28;20057;-74
2022/09/20 01:41:29;;;;;;;10.38;1.77;;;;;;;8.96;82.17;96599.44;5013202;28;20053;-74
2022/09/20 01:44:05;;;;;;;13.43;1.98;;;;;;;9.01;82.67;96597.44;5013325;28;20098;-74
2022/09/20 01:46:33;;;;;;;16.80;2.40;;;;;;;9.13;82.58;96599.66;5013057;28;20050;-73
2022/09/20 01:49:13;;;;;;;12.50;2.00;;;;;;;9.02;82.07;96588.19;5012418;28;20052;-74
2022/09/20 01:52:11;;;;;;;14.85;2.17;;;;;;;9.03;82.44;96591.69;5013112;28;20046;-74
2022/09/20 01:55:11;;;;;;;13.45;1.85;;;;;;;8.82;82.93;96583.13;5012766;28;20042;-74
2022/09/20 01:58:03;;;;;;;19.42;3.15;;;;;;;8.84;83.09;96586.38;4992629;28;20057;-73
2022/09/20 02:00:38;;;;;;;24.10;3.25;;;;;;;8.86;83.60;96589.59;5012803;28;20421;-75
2022/09/20 02:03:32;;;;;;;12.20;2.15;;;;;;;8.88;84.05;96584.69;5012473;28;20057;-74
2022/09/20 02:06:38;;;;;;;14.18;2.28;;;;;;;8.97;83.61;96591.00;4979740;28;20050;-75
2022/09/20 02:09:33;;;;;;;11.95;2.15;;;;;;;8.95;83.44;96584.28;5012547;28;20049;-75
2022/09/20 02:12:22;;;;;;;10.07;1.65;;;;;;;8.79;84.10;96578.31;5010823;28;20417;-75
2022/09/20 02:14:59;;;;;;;12.90;2.10;;;;;;;8.73;85.10;96584.97;5012454;28;20038;-74
2022/09/20 02:17:34;;;;;;;13.05;2.35;;;;;;;8.74;84.77;96587.38;5012494;28;20409;-74
2022/09/20 02:20:10;;;;;;;9.32;1.75;;;;;;;8.85;84.70;96588.78;5012591;28;20045;-75
2022/09/20 02:22:43;;;;;;;9.18;1.55;;;;;;;8.96;84.48;96594.81;5012945;28;20056;-74
2022/09/20 02:25:20;;;;;;;11.00;1.75;;;;;;;9.03;83.61;96597.97;5016287;28;20061;-75
2022/09/20 02:27:59;;;;;;;15.15;2.45;;;;;;;9.12;83.92;96598.03;5011022;28;20212;-75
2022/09/20 02:30:38;;;;;;;18.55;2.63;;;;;;;9.21;83.30;96603.59;5012585;28;20096;-75
2022/09/20 02:33:23;;;;;;;17.25;2.20;;;;;;;9.18;83.82;96601.47;5012844;28;20052;-74
2022/09/20 02:36:06;;;;;;;13.73;2.33;;;;;;;9.18;83.52;96601.47;5014445;28;20050;-74
2022/09/20 02:38:44;;;;;;;18.90;2.63;;;;;;;9.23;83.52;96598.63;4981362;28;1054821;-75
2022/09/20 02:41:35;;;;;;;14.55;2.08;;;;;;;9.25;83.30;96601.88;5016999;28;20046;-75
2022/09/20 02:44:10;;;;;;;11.35;2.00;;;;;;;9.30;83.33;96589.00;5018162;28;20045;-74
2022/09/20 02:46:45;;;;;;;16.50;2.58;;;;;;;9.28;83.45;96593.91;5019141;28;20054;-76
2022/09/20 02:49:23;;;;;;;12.40;2.00;;;;;;;9.17;83.56;96597.13;5018794;28;20038;-75
2022/09/20 02:51:53;;;;;;;9.77;1.77;;;;;;;9.04;84.34;96599.56;5020017;28;20037;-74
2022/09/20 02:54:33;;;;;;;9.43;1.70;;;;;;;9.11;84.21;96597.25;5018891;28;20064;-74
2022/09/20 02:57:08;;;;;;;15.50;2.42;;;;;;;9.09;83.88;96598.66;5019769;28;20054;-74
2022/09/20 02:59:44;;;;;;;11.10;2.00;;;;;;;9.13;84.00;96608.63;5020502;28;20045;-76
2022/09/20 03:02:22;;;;;;;8.32;1.67;;;;;;;9.23;83.62;96614.94;5021970;28;20056;-74
2022/09/20 03:05:08;;;;;;;12.13;2.30;;;;;;;9.25;83.60;96610.03;5021804;28;20444;-75
2022/09/20 03:07:47;;;;;;;13.93;2.22;;;;;;;9.07;83.83;96604.38;5021448;28;20110;-74
2022/09/20 03:10:21;;;;;;;17.67;2.70;;;;;;;8.93;83.91;96617.16;5024008;28;20122;-74
2022/09/20 03:13:06;;;;;;;14.38;2.22;;;;;;;9.01;84.58;96611.03;5021375;28;20056;-74
2022/09/20 03:15:45;;;;;;;16.00;2.58;;;;;;;9.04;83.54;96613.16;5019317;28;20064;-74
2022/09/20 03:18:16;;;;;;;9.95;1.88;;;;;;;8.85;85.25;96615.13;5003403;28;20073;-75
2022/09/20 03:20:55;;;;;;;13.27;2.08;;;;;;;8.95;84.92;96617.66;5016901;28;20050;-74
2022/09/20 03:23:37;;;;;;;16.45;3.00;;;;;;;8.90;85.66;96612.31;4995619;28;20050;-75
2022/09/20 03:26:13;;;;;;;13.07;2.45;;;;;;;8.88;85.97;96604.50;5009788;28;20045;-74
2022/09/20 03:28:56;;;;;;;10.38;1.95;;;;;;;8.92;85.76;96610.09;5014706;28;20072;-75
2022/09/20 03:31:37;;;;;;;11.10;2.10;;;;;;;9.03;85.67;96611.53;5013337;28;20048;-73
2022/09/20 03:34:15;;;;;;;10.30;2.08;;;;;;;8.80;86.32;96607.09;5013466;28;20085;-75
2022/09/20 03:36:59;;;;;;;5.65;1.15;;;;;;;8.82;86.73;96608.41;5012689;28;20050;-74
2022/09/20 03:39:31;;;;;;;;;;;;;;;8.95;86.04;96614.16;5013060;28;20057;-74
2022/09/20 03:42:19;;;;;;;7.65;1.90;;;;;;;8.88;86.64;96614.56;5012785;28;19921;-74
2022/09/20 03:45:04;;;;;;;20.10;3.35;;;;;;;8.94;86.42;96613.34;5007925;28;20049;-75
2022/09/20 03:47:57;;;;;;;9.45;2.00;;;;;;;8.93;85.91;96608.19;5013107;28;20054;-74
2022/09/20 03:50:51;;;;;;;16.70;2.75;;;;;;;8.94;86.10;96616.06;5012474;28;20050;-73
2022/09/20 03:53:54;;;;;;;14.05;2.10;;;;;;;8.94;86.35;96613.34;5007233;28;20054;-75
2022/09/20 03:57:03;;;;;;;15.85;2.38;;;;;;;8.98;86.78;96617.06;5011992;28;20401;-74
2022/09/20 04:00:00;;;;;;;11.20;2.13;;;;;;;9.03;86.71;96616.97;5012031;28;20042;-73
2022/09/20 04:02:41;;;;;;;16.92;2.70;;;;;;;9.07;86.84;96611.72;5010893;28;20046;-74
2022/09/20 04:05:12;;;;;;;13.55;2.30;;;;;;;9.12;87.07;96619.78;5011220;28;20046;-75
2022/09/20 04:07:51;;;;;;;8.13;1.90;;;;;;;9.04;86.98;96618.59;5012230;28;20057;-74
2022/09/20 04:10:28;;;;;;;12.93;2.30;;;;;;;8.69;88.10;96611.91;5011958;28;20053;-74
2022/09/20 04:13:15;;;;;;;12.63;2.47;;;;;;;8.86;87.72;96605.88;5011986;28;20056;-75
2022/09/20 04:15:52;;;;;;;12.60;3.08;;;;;;;8.98;87.78;96608.94;5011936;28;20057;-74
2022/09/20 04:18:30;;;;;;;10.90;2.15;;;;;;;9.02;87.43;96614.53;5012089;28;20073;-74
2022/09/20 04:21:03;;;;;;;13.70;2.78;;;;;;;8.87;87.40;96616.47;5012343;28;20045;-76
2022/09/20 04:23:38;;;;;;;12.10;2.35;;;;;;;8.91;87.05;96613.13;5011975;28;20057;-75
2022/09/20 04:26:05;;;;;;;11.32;2.10;;;;;;;8.99;86.96;96615.97;5011232;28;20405;-73
2022/09/20 04:28:40;;;;;;;8.75;2.17;;;;;;;9.04;86.55;96610.44;5012500;28;20441;-74
2022/09/20 04:31:20;;;;;;;11.90;2.45;;;;;;;8.91;87.10;96611.22;5011689;28;20045;-74
2022/09/20 04:33:51;;;;;;;12.57;2.45;;;;;;;8.86;86.99;96611.31;5011703;28;20050;-74
2022/09/20 04:36:34;;;;;;;13.15;2.55;;;;;;;8.59;88.88;96607.44;5010936;28;20045;-74
2022/09/20 04:39:14;;;;;;;10.55;2.35;;;;;;;8.74;88.45;96614.53;5011413;28;20058;-74
2022/09/20 04:42:17;;;;;;;10.02;2.20;;;;;;;8.71;88.29;96614.31;5011818;28;20528;-76
2022/09/20 04:45:07;;;;;;;13.73;2.58;;;;;;;8.79;87.97;96616.34;5011266;28;20042;-74
2022/09/20 04:48:04;;;;;;;12.38;2.13;;;;;;;8.75;87.80;96618.03;5011125;28;20050;-74
2022/09/20 04:51:09;;;;;;;13.35;2.75;;;;;;;8.67;88.50;96632.31;5012611;28;20507;-74
2022/09/20 04:54:13;;;;;;;16.40;2.85;;;;;;;8.53;88.46;96627.66;4998195;28;20482;-75
2022/09/20 04:56:58;;;;;;;13.95;2.97;;;;;;;8.70;88.45;96626.28;5006881;28;20050;-74
2022/09/20 04:59:39;;;;;;;24.63;4.43;;;;;;;8.63;88.55;96630.19;5011786;28;20053;-75
2022/09/20 05:02:28;;;;;;;8.38;2.40;;;;;;;8.71;88.22;96630.59;5028413;28;20045;-75
2022/09/20 05:05:29;;;;;;;17.08;3.13;;;;;;;8.68;88.46;96631.22;5022440;28;20042;-75
2022/09/20 05:08:31;;;;;;;10.63;2.60;;;;;;;8.77;88.42;96621.25;5015089;28;20425;-74
2022/09/20 05:11:22;;;;;;;15.45;2.80;;;;;;;8.83;88.05;96630.94;5014898;28;20050;-74
2022/09/20 05:14:01;;;;;;;13.15;2.70;;;;;;;8.84;87.62;96635.25;5014133;28;20050;-74
2022/09/20 05:16:45;;;;;;;10.73;2.53;;;;;;;8.86;87.61;96633.03;5015070;28;20492;-74
2022/09/20 05:19:19;;;;;;;;;;;;;;;8.75;88.15;96635.13;5014305;28;20046;-74
2022/09/20 05:22:22;;;;;;;17.60;3.20;;;;;;;8.86;88.16;96641.19;5013902;28;19921;-74
2022/09/20 05:25:06;;;;;;;9.43;2.43;;;;;;;8.77;87.99;96651.94;5010687;28;20085;-75
2022/09/20 05:27:42;;;;;;;15.43;3.15;;;;;;;8.84;87.86;96652.34;5014454;28;20289;-74
2022/09/20 05:30:19;;;;;;;12.40;2.92;;;;;;;8.80;87.57;96642.38;5014362;28;20041;-75
2022/09/20 05:32:52;;;;;;;10.15;2.47;;;;;;;8.89;87.78;96646.03;5014769;28;20054;-75
2022/09/20 05:35:29;;;;;;;13.38;2.53;;;;;;;8.82;87.36;96659.16;5014482;28;20049;-75
2022/09/20 05:38:03;;;;;;;13.23;2.53;;;;;;;8.71;87.94;96646.88;5013795;28;20054;-74
2022/09/20 05:40:38;;;;;;;6.93;2.83;;;;;;;8.84;87.93;96654.25;5014037;28;20044;-74
2022/09/20 05:43:11;;;;;;;11.13;2.65;;;;;;;8.81;88.00;96652.94;5014214;28;20054;-75
2022/09/20 05:45:56;;;;;;;15.20;3.35;;;;;;;8.81;88.04;96652.13;5014135;28;20057;-74
2022/09/20 05:48:32;;;;;;;13.15;2.97;;;;;;;8.84;87.50;96656.97;5013974;28;20053;-75
2022/09/20 05:51:09;;;;;;;12.18;2.85;;;;;;;8.82;87.91;96656.47;5014217;28;20050;-74
2022/09/20 05:54:05;;;;;;;14.95;2.75;;;;;;;8.81;87.91;96657.56;5014839;28;20447;-75
2022/09/20 05:56:45;;;;;;;14.93;3.15;;;;;;;8.89;88.06;96667.75;5013962;28;20046;-75
2022/09/20 05:59:33;;;;;;;14.73;2.90;;;;;;;8.91;88.01;96667.44;5013933;28;20050;-74
2022/09/20 06:02:15;;;;;;;12.90;2.63;;;;;;;8.94;87.85;96673.09;4993866;28;20050;-73
2022/09/20 06:04:50;;;;;;;13.60;2.97;;;;;;;8.92;87.69;96669.06;4995233;28;20057;-74
2022/09/20 06:07:31;;;;;;;16.80;3.55;;;;;;;8.93;88.40;96671.50;4994934;28;20046;-75
2022/09/20 06:10:15;;;;;;;10.23;2.75;;;;;;;8.95;88.46;96682.84;4998542;28;20045;-74
2022/09/20 06:12:52;;;;;;;9.40;2.45;;;;;;;9.07;87.88;96682.34;5016062;28;20049;-74
2022/09/20 06:15:24;;;;;;;13.30;3.17;;;;;;;9.10;87.30;96665.47;5014537;28;20054;-75
2022/09/20 06:17:59;;;;;;;12.77;2.95;;;;;;;8.94;87.31;96677.72;5014325;28;20049;-74
2022/09/20 06:20:30;;;;;;;14.10;3.35;;;;;;;8.96;88.14;96680.94;5013405;28;20050;-75
2022/09/20 06:23:00;;;;;;;12.23;3.10;;;;;;;8.91;87.86;96679.13;5015071;28;20060;-75
2022/09/20 06:25:32;;;;;;;12.63;3.20;;;;;;;8.95;88.66;96679.34;5014266;28;20141;-75
2022/09/20 06:28:05;;;;;;;13.77;3.17;;;;;;;8.98;87.94;96682.25;5013781;28;20057;-75
2022/09/20 06:30:35;;;;;;;13.85;3.35;;;;;;;9.04;88.20;96678.34;5013579;28;20046;-76
2022/09/20 06:33:14;;;;;;;11.13;3.10;;;;;;;9.11;88.22;96678.75;5012620;28;20562;-73
2022/09/20 06:35:46;;;;;;;14.98;3.47;;;;;;;9.11;87.63;96681.47;5011701;28;20065;-75
2022/09/20 06:41:28;;;;;;;12.48;3.00;;;;;;;9.17;87.12;96684.09;5012620;28;20100;-74
2022/09/20 06:43:57;;;;;;;15.75;3.67;;;;;;;9.15;87.27;96684.38;5012682;28;20115;-73
2022/09/20 06:46:24;;;;;;;18.92;3.63;;;;;;;9.14;87.52;96688.22;5012793;28;20045;-73
2022/09/20 06:48:50;;;;;;;14.75;4.07;;;;;;;9.16;87.58;96688.72;5012560;28;20062;-73
2022/09/20 06:51:17;;;;;;;13.40;3.13;;;;;;;9.20;88.24;96688.94;5013255;28;20045;-73
2022/09/20 06:53:45;;;;;;;15.80;3.50;;;;;;;9.04;87.76;96700.06;5012235;28;20750;-73
2022/09/20 06:56:19;;;;;;;14.93;3.22;;;;;;;9.19;87.74;96696.28;5012343;28;20472;-73
2022/09/20 06:58:45;;;;;;;19.88;3.92;;;;;;;9.21;87.68;96698.69;5012581;28;20054;-72
2022/09/20 07:01:13;;;;;;;12.27;2.88;;;;;;;9.29;87.93;96695.25;5011632;28;20046;-74
2022/09/20 07:03:39;;;;;;;11.55;3.45;;;;;;;9.31;88.31;96699.28;5012023;28;20038;-73
2022/09/20 07:06:06;;;;;;;14.35;3.38;;;;;;;9.18;88.45;96704.72;5012061;28;20050;-73
2022/09/20 07:08:33;;;;;;;13.55;3.33;;;;;;;9.30;88.60;96705.84;5001015;28;20049;-73
2022/09/20 07:11:05;;;;;;;16.35;3.63;;;;;;;9.41;88.02;96704.53;4993719;28;20042;-73
2022/09/20 07:13:32;;;;;;;15.02;3.42;;;;;;;9.51;86.80;96700.81;4992550;28;20049;-73
2022/09/20 07:16:03;;;;;;;14.60;3.67;;;;;;;9.44;86.95;96708.53;4993036;28;20054;-75
2022/09/20 07:18:30;;;;;;;12.93;3.72;;;;;;;9.46;87.57;96706.34;4994096;28;20042;-74
2022/09/20 07:20:57;;;;;;;16.50;4.30;;;;;;;9.47;87.78;96702.53;5012828;28;20056;-73
2022/09/20 07:23:24;;;;;;;20.98;4.90;;;;;;;9.54;87.26;96702.09;5014817;28;20042;-76
2022/09/20 07:25:51;;;;;;;17.90;3.78;;;;;;;9.58;87.19;96708.56;5016547;28;20133;-75
2022/09/20 07:28:19;;;;;;;14.23;3.78;;;;;;;9.67;87.05;96702.13;5014920;28;20048;-73
2022/09/20 07:30:46;;;;;;;14.73;4.03;;;;;;;9.76;86.88;96704.94;5012864;28;20104;-75
2022/09/20 07:33:18;;;;;;;16.23;3.97;;;;;;;9.82;86.91;96705.63;5013329;28;20050;-74
2022/09/20 07:35:45;;;;;;;18.70;4.68;;;;;;;9.71;87.64;96713.19;5011595;28;20053;-73
2022/09/20 07:38:12;;;;;;;13.43;3.85;;;;;;;9.82;87.08;96706.44;4992885;28;20046;-73
2022/09/20 07:40:38;;;;;;;12.02;3.60;;;;;;;9.95;85.83;96712.94;5010928;28;20105;-73
2022/09/20 07:43:05;;;;;;;17.63;3.65;;;;;;;10.00;84.97;96714.75;5012215;28;20042;-73
2022/09/20 07:45:34;;;;;;;20.33;4.85;;;;;;;9.68;86.00;96703.72;5011453;28;20060;-73
2022/09/20 07:48:04;;;;;;;16.85;4.22;;;;;;;9.70;86.17;96713.47;5011625;28;20049;-73
2022/09/20 07:50:30;;;;;;;21.83;5.30;;;;;;;9.72;86.42;96711.28;5011512;28;20052;-74
2022/09/20 07:52:57;;;;;;;16.65;4.20;;;;;;;9.86;85.26;96714.78;5012269;28;20073;-73
2022/09/20 07:55:23;;;;;;;17.13;4.18;;;;;;;9.92;85.12;96716.28;5011708;28;20513;-73
2022/09/20 07:57:50;;;;;;;18.80;4.90;;;;;;;9.93;85.24;96718.69;5011371;28;20048;-73
2022/09/20 08:00:17;;;;;;;21.67;5.05;;;;;;;9.79;85.56;96719.81;5011706;28;20501;-73
2022/09/20 08:02:45;;;;;;;18.63;4.13;;;;;;;9.67;85.28;96717.63;5011735;28;20049;-73
2022/09/20 08:05:12;;;;;;;17.10;4.47;;;;;;;9.60;86.22;96725.38;5011642;28;20046;-74
2022/09/20 08:07:39;;;;;;;18.98;4.53;;;;;;;9.79;86.52;96719.81;5011510;28;20188;-74
2022/09/20 08:10:06;;;;;;;18.38;4.80;;;;;;;9.98;86.75;96727.88;5011488;28;20042;-73
2022/09/20 08:12:33;;;;;;;18.17;4.50;;;;;;;10.08;84.95;96717.56;5009727;28;20049;-76
2022/09/20 08:15:00;;;;;;;29.70;6.50;;;;;;;10.13;85.02;96717.47;5010329;28;20046;-73
2022/09/20 08:17:27;;;;;;;17.88;4.00;;;;;;;10.33;83.82;96723.56;5010043;28;20042;-73
2022/09/20 08:19:55;;;;;;;18.92;4.40;;;;;;;10.34;82.87;96730.66;5010344;28;20477;-73
2022/09/20 08:22:22;;;;;;;25.02;5.57;;;;;;;10.22;83.00;96727.59;5009566;28;20061;-73
2022/09/20 08:24:48;;;;;;;17.48;4.45;;;;;;;10.01;83.45;96730.78;5011541;28;20088;-73
2022/09/20 08:27:15;;;;;;;14.50;4.20;;;;;;;9.91;83.97;96731.78;5015317;28;20080;-73
2022/09/20 08:29:41;;;;;;;10.80;3.53;;;;;;;10.02;83.93;96724.22;5015534;28;20052;-73
2022/09/20 08:32:09;;;;;;;16.27;4.15;;;;;;;9.95;84.82;96729.28;5015583;28;20050;-74
2022/09/20 08:34:35;;;;;;;9.55;3.35;;;;;;;9.79;84.71;96725.25;4998565;28;20046;-76
2022/09/20 08:37:03;;;;;;;18.33;5.25;;;;;;;9.78;84.88;96731.81;5016242;28;20163;-74
2022/09/20 08:39:30;;;;;;;19.77;4.55;;;;;;;9.88;84.36;96726.16;5015072;28;20163;-73
2022/09/20 08:42:01;;;;;;;15.10;4.07;;;;;;;9.98;83.54;96733.31;5015261;28;20046;-73
2022/09/20 08:44:32;;;;;;;16.95;4.47;;;;;;;9.89;83.44;96727.78;5015503;28;20073;-72
2022/09/20 08:47:08;;;;;;;11.63;3.92;;;;;;;9.90;84.04;96730.19;5018289;28;20054;-79
2022/09/20 08:49:35;;;;;;;11.48;3.47;;;;;;;10.12;84.28;96729.44;5024725;28;20416;-81
2022/09/20 08:52:04;;;;;;;15.90;4.03;;;;;;;10.31;83.03;96723.09;5020144;28;20046;-73
2022/09/20 08:54:34;;;;;;;15.40;3.53;;;;;;;10.36;79.92;96729.22;5014612;28;20073;-74
2022/09/20 08:57:04;;;;;;;15.68;3.40;;;;;;;10.39;78.50;96728.63;5014921;28;20416;-73
2022/09/20 08:59:31;;;;;;;11.48;2.85;;;;;;;10.40;78.61;96737.59;5015575;28;20611;-73
2022/09/20 09:01:58;;;;;;;12.13;2.83;;;;;;;10.31;79.40;96733.97;5014785;28;20053;-75
2022/09/20 09:04:33;;;;;;;15.38;3.63;;;;;;;10.35;78.43;96733.06;5014664;28;20076;-74
2022/09/20 09:07:01;;;;;;;24.35;4.28;;;;;;;10.45;76.62;96732.03;5014743;28;20050;-74
2022/09/20 09:09:30;;;;;;;14.27;3.20;;;;;;;10.71;77.64;96735.75;5014874;28;20489;-73
2022/09/20 09:11:58;;;;;;;11.38;2.50;;;;;;;10.80;73.31;96727.63;5015431;28;20058;-75
2022/09/20 09:17:14;;;;;;;18.67;3.55;;;;;;;10.98;72.59;96729.34;5015294;28;20123;-74
2022/09/20 09:19:48;;;;;;;18.15;3.72;;;;;;;11.04;72.27;96732.75;5014027;28;20052;-74
2022/09/20 09:22:20;;;;;;;18.70;3.72;;;;;;;11.08;72.52;96722.84;5014424;28;20092;-74
2022/09/20 09:25:07;;;;;;;16.90;3.03;;;;;;;11.30;72.75;96722.00;5014475;28;20468;-73
2022/09/20 09:27:34;;;;;;;14.38;3.33;;;;;;;11.52;73.57;96706.69;5014336;28;20054;-74
2022/09/20 09:30:01;;;;;;;12.82;2.95;;;;;;;11.74;71.31;96715.63;5014427;28;20042;-74
2022/09/20 09:32:30;;;;;;;19.92;3.92;;;;;;;11.48;68.54;96714.69;5014221;28;20080;-73
2022/09/20 09:34:57;;;;;;;21.92;4.45;;;;;;;11.38;70.45;96714.97;5014248;28;20497;-74
2022/09/20 09:37:29;;;;;;;16.92;3.63;;;;;;;11.21;71.77;96712.97;5014012;28;20054;-74
2022/09/20 09:40:16;;;;;;;17.98;3.25;;;;;;;11.05;72.37;96712.56;5013779;28;20038;-75
2022/09/20 09:42:50;;;;;;;11.85;2.88;;;;;;;10.82;73.32;96711.00;5013722;28;20481;-74
2022/09/20 09:45:26;;;;;;;23.70;4.28;;;;;;;10.67;74.06;96718.41;5013866;28;20050;-73
2022/09/20 09:47:53;;;;;;;14.80;2.85;;;;;;;10.39;75.56;96715.00;5014383;28;20052;-74
2022/09/20 09:50:23;;;;;;;14.95;4.07;;;;;;;10.34;78.08;96720.56;5016531;28;20053;-80
2022/09/20 09:53:09;;;;;;;14.98;3.30;;;;;;;10.27;81.01;96719.34;5020828;28;20034;-81
2022/09/20 09:56:12;;;;;;;17.73;4.10;;;;;;;10.27;80.98;96711.19;5004152;28;20046;-81
2022/09/20 09:58:54;;;;;;;9.98;3.00;;;;;;;10.40;81.28;96718.53;5014138;28;20092;-74
2022/09/20 10:01:30;;;;;;;13.13;3.75;;;;;;;10.25;77.75;96713.44;5013688;28;20065;-77
2022/09/20 10:04:04;;;;;;;15.55;3.67;;;;;;;10.11;77.78;96708.78;5014495;28;20053;-75
2022/09/20 10:06:37;;;;;;;15.00;3.78;;;;;;;10.12;76.67;96702.22;5013776;28;20504;-76
2022/09/20 10:09:21;;;;;;;16.48;3.97;;;;;;;10.25;77.90;96705.25;5013875;28;20050;-74
2022/09/20 10:12:13;;;;;;;11.63;3.50;;;;;;;10.22;76.68;96705.84;5013499;28;20050;-73
2022/09/20 10:14:57;;;;;;;13.13;3.33;;;;;;;10.18;75.59;96701.03;5013372;28;20053;-73
2022/09/20 10:17:41;;;;;;;17.70;4.30;;;;;;;10.29;76.11;96698.09;5012833;28;20045;-72
2022/09/20 10:20:26;;;;;;;16.75;3.50;;;;;;;10.58;75.56;96692.22;5013323;28;20445;-73
2022/09/20 10:23:02;;;;;;;12.80;2.97;;;;;;;10.99;69.95;96683.84;5013951;28;20046;-73
2022/09/20 10:25:39;;;;;;;14.88;3.13;;;;;;;11.37;70.12;96694.28;5013491;28;20050;-73
2022/09/20 10:28:21;;;;;;;11.55;2.90;;;;;;;11.52;69.08;96688.41;5012742;28;20049;-74
2022/09/20 10:31:00;;;;;;;12.88;2.80;;;;;;;11.39;68.19;96683.88;5013198;28;20057;-73
2022/09/20 10:33:37;;;;;;;13.82;3.00;;;;;;;11.41;69.69;96685.16;5013345;28;20093;-74
2022/09/20 10:36:23;;;;;;;12.48;2.83;;;;;;;11.46;69.48;96689.66;5012758;28;20046;-75
2022/09/20 10:38:57;;;;;;;13.13;2.75;;;;;;;11.83;71.41;96687.56;5012706;28;20050;-76
2022/09/20 10:44:36;;;;;;;18.40;3.25;;;;;;;11.89;63.58;96689.00;5012260;28;19944;-77
2022/09/20 10:47:12;;;;;;;20.33;3.67;;;;;;;11.74;62.42;96691.06;5011453;28;20416;-73
2022/09/20 10:49:42;;;;;;;14.57;3.25;;;;;;;11.63;62.74;96691.66;5012799;28;20072;-76
2022/09/20 10:52:23;;;;;;;20.05;3.58;;;;;;;11.56;64.64;96683.94;5012874;28;20050;-75
2022/09/20 10:55:03;;;;;;;18.10;2.83;;;;;;;11.64;63.85;96691.34;5011814;28;20048;-75
2022/09/20 10:58:04;;;;;;;11.27;2.17;;;;;;;11.67;64.49;96687.16;5012956;28;20042;-74
2022/09/20 11:00:42;;;;;;;12.98;2.33;;;;;;;11.76;64.35;96694.25;5005318;28;20054;-74
2022/09/20 11:03:22;;;;;;;32.13;3.78;;;;;;;11.45;61.78;96688.06;5012491;28;20045;-74
2022/09/20 11:06:01;;;;;;;19.92;3.75;;;;;;;11.64;63.85;96698.69;5012601;28;20054;-75
2022/09/20 11:08:33;;;;;;;13.85;2.65;;;;;;;11.92;64.95;96699.31;5012566;28;20437;-74
2022/09/20 11:11:07;;;;;;;12.88;2.47;;;;;;;12.11;63.71;96694.38;5012203;28;20436;-75
2022/09/20 11:13:42;;;;;;;12.15;2.47;;;;;;;12.46;63.16;96688.91;5012221;28;20564;-75
2022/09/20 11:16:14;;;;;;;24.48;3.40;;;;;;;12.65;62.64;96686.66;5012319;28;20460;-74
2022/09/20 11:18:47;;;;;;;11.18;2.17;;;;;;;12.86;60.38;96684.06;5012350;28;20417;-75
2022/09/20 11:21:19;;;;;;;15.85;2.70;;;;;;;12.96;58.61;96689.19;5012921;28;20405;-74
2022/09/20 11:23:54;;;;;;;13.63;2.00;;;;;;;12.76;55.28;96701.59;5011398;28;20524;-74
2022/09/20 11:26:28;;;;;;;17.88;2.78;;;;;;;12.80;56.84;96696.28;5012044;28;20778;-74
2022/09/20 11:29:01;;;;;;;15.50;2.08;;;;;;;12.70;58.41;96697.41;5012258;28;20057;-74
2022/09/20 11:31:33;;;;;;;20.20;2.58;;;;;;;12.72;56.65;96697.88;5012182;28;20057;-74
2022/09/20 11:34:08;;;;;;;18.70;2.53;;;;;;;12.98;56.58;96694.31;5012467;28;20052;-74
2022/09/20 11:36:42;;;;;;;12.70;2.72;;;;;;;12.88;56.88;96700.91;5011913;28;20251;-74
2022/09/20 11:39:15;;;;;;;16.17;2.40;;;;;;;12.95;58.51;96692.25;5011633;28;20693;-72
2022/09/20 11:41:43;;;;;;;15.75;2.30;;;;;;;13.01;59.29;96704.63;5012215;28;20422;-72
2022/09/20 11:44:14;;;;;;;14.63;2.28;;;;;;;12.98;55.48;96697.06;5011886;28;20582;-73
2022/09/20 11:46:47;;;;;;;16.17;2.10;;;;;;;12.88;57.16;96703.66;5011164;28;20708;-73
2022/09/20 11:49:16;;;;;;;;;;;;;;;13.10;54.57;96697.16;5011551;28;20396;-72
2022/09/20 11:52:05;;;;;;;13.55;2.20;;;;;;;12.98;55.63;96697.06;5011871;28;20308;-73
2022/09/20 11:54:59;;;;;;;23.42;2.90;;;;;;;13.03;58.05;96694.94;5011187;28;20046;-72
2022/09/20 11:57:27;;;;;;;;;;;;;;;13.01;57.61;96693.69;5012392;28;20046;-72
2022/09/20 11:59:56;;;;;;;13.57;2.42;;;;;;;12.94;56.94;96682.41;5011048;28;19983;-72
2022/09/20 12:02:32;;;;;;;19.88;3.03;;;;;;;12.63;57.26;96688.88;5011243;28;20050;-72
2022/09/20 12:05:00;;;;;;;13.98;2.42;;;;;;;12.56;58.12;96683.13;5011813;28;20050;-73
2022/09/20 12:07:33;;;;;;;14.20;2.45;;;;;;;12.74;57.56;96682.00;5011377;28;20050;-72
2022/09/20 12:10:02;;;;;;;17.55;2.38;;;;;;;13.18;56.61;96685.41;5006844;28;20406;-73
2022/09/20 12:12:37;;;;;;;17.38;2.35;;;;;;;13.11;57.14;96676.13;5011317;28;20050;-74
2022/09/20 12:15:06;;;;;;;15.43;2.30;;;;;;;13.01;55.82;96680.81;5011049;28;20049;-73
2022/09/20 12:18:22;;;;;;;13.85;2.10;;;;;;;12.91;55.99;96683.09;5011774;28;20049;-72
2022/09/20 12:21:08;;;;;;;16.27;2.55;;;;;;;12.97;58.38;96677.13;4967647;28;20058;-73